Husum, Washington
Current Conditions -  °F | °C
As of 6:39 AM on Monday 24 Nov 2014 (Local Time) from K4S2 Reporting Station
Overcast Overcast  
Wind Chill: 39°   Ceiling: 1200
Heat Index: 39°   Visibility: 10mi
Dew Point: 39°   Wind: 0mph
Humidity: 100%   Direction: NA
Pressure: 30.4"   Gusts: NA
Location:  45.8°N, 121.49°W
Report Text: K4S2 241439Z AUTO 00000KT 10SM OVC012 04/04 A3040 RMK AO2 SLP310 T00400040
Loading
Personal Weather Stations






























Interactive Weather Map New forecast layout! Learn more

10-Day Weather Forecast

Advertisements
Track Severe Weather on mobile